Search for airport 
image banner adimage banner adimage banner ad
image banner ad

49CA - Dcor Platform Habitat

Located in Carpinteria, United States

ICAO - 49CA, IATA -

Data provided by Airmate  

General information

Coordinates: N34°17'12" W119°35'20"
Elevation is 90 feet MSL.
Magnetic variation is 14° East
View others Airports in California

Operational data

Special qualification required
Current time UTC:
Current local time:
Weather at : KSBA - Santa Barbara Muni ( 28 km )
METAR: KSBA 211253Z AUTO 00000KT 7SM OVC007 15/13 A2997 RMK AO2 SLP147 T01500133
TAF: KSBA 211158Z 2112/2212 VRB03KT P6SM OVC006 FM211700 16005KT P6SM OVC010 FM212000 25010KT P6SM SCT012 FM220300 VRB03KT P6SM SKC FM220900 VRB03KT P6SM OVC007
View NOTAMs / SUP AIP / TFR affecting this airport [VIEW]
Communications frequencies: [VIEW]

Runways:

Airport contact information

Address: Carpinteria United States

Satellite view of 49CA